Time;durP1;ratioP1;P1;durP2;ratioP2;P2;SDS_P1;SDS_P2;PMS_P1;PMS_P2;Temp;Humidity;BMP_temperature;BMP_pressure;BME280_temperature;BME280_humidity;BME280_pressure;Samples;Min_cycle;Max_cycle;Signal;HPM_P1;HPM_P2
2021/11/10 00:02:07;;;;;;;;;;;25.70;42.90;;;;;;5014254;28;19913;-76
2021/11/10 00:04:32;;;;;;;;;;;25.70;42.90;;;;;;4997846;28;19940;-77
2021/11/10 00:07:01;;;;;;;;;;;25.70;42.90;;;;;;5014147;28;19940;-77
2021/11/10 00:09:31;;;;;;;;;;;25.70;42.90;;;;;;4997778;28;19910;-76
2021/11/10 00:11:57;;;;;;;;;;;25.70;42.90;;;;;;4998191;28;20422;-77
2021/11/10 00:14:22;;;;;;;;;;;25.70;42.90;;;;;;5015110;28;19967;-77
2021/11/10 00:16:48;;;;;;;;;;;25.70;42.80;;;;;;5018262;28;19910;-77
2021/11/10 00:19:13;;;;;;;;;;;25.70;42.80;;;;;;5017976;28;19936;-76
2021/11/10 00:21:39;;;;;;;;;;;25.70;42.80;;;;;;5018359;28;20262;-78
2021/11/10 00:24:04;;;;;;;;;;;25.70;42.80;;;;;;5018679;28;19909;-78
2021/11/10 00:26:30;;;;;;;;;;;25.70;42.90;;;;;;5001457;28;19920;-76
2021/11/10 00:28:58;;;;;;;;;;;25.70;42.90;;;;;;5001263;28;20212;-77
2021/11/10 00:31:25;;;;;;;;;;;25.70;42.90;;;;;;5018529;28;19913;-76
2021/11/10 00:33:51;;;;;;;;;;;25.70;42.90;;;;;;5018600;28;20303;-77
2021/11/10 00:36:16;;;;;;;;;;;25.70;42.90;;;;;;5002992;28;19914;-77
2021/11/10 00:38:42;;;;;;;;;;;25.70;42.90;;;;;;5020944;28;19986;-77
2021/11/10 00:41:08;;;;;;;;;;;25.70;42.90;;;;;;5020775;28;19920;-78
2021/11/10 00:43:33;;;;;;;;;;;25.70;42.90;;;;;;5020931;28;19913;-76
2021/11/10 00:45:59;;;;;;;;;;;25.70;42.90;;;;;;5038223;28;20345;-78
2021/11/10 00:48:25;;;;;;;;;;;25.70;42.90;;;;;;5020791;28;19929;-76
2021/11/10 00:50:52;;;;;;;;;;;25.70;42.90;;;;;;5004486;28;20348;-77
2021/11/10 00:53:18;;;;;;;;;;;25.70;42.90;;;;;;5020736;28;19995;-77
2021/11/10 00:55:44;;;;;;;;;;;25.70;42.90;;;;;;5037913;28;19909;-78
2021/11/10 00:58:10;;;;;;;;;;;25.70;42.90;;;;;;5004262;28;19978;-78
2021/11/10 01:00:38;;;;;;;;;;;25.70;42.90;;;;;;5037875;28;20314;-77
2021/11/10 01:03:04;;;;;;;;;;;25.70;42.90;;;;;;5004095;28;19913;-79
2021/11/10 01:05:30;;;;;;;;;;;25.70;42.90;;;;;;5020569;28;19920;-76
2021/11/10 01:07:57;;;;;;;;;;;25.70;42.80;;;;;;5020845;28;19909;-79
2021/11/10 01:10:23;;;;;;;;;;;25.70;42.90;;;;;;5020765;28;19917;-76
2021/11/10 01:12:49;;;;;;;;;;;25.70;42.80;;;;;;5037577;28;19963;-78
2021/11/10 01:15:14;;;;;;;;;;;25.70;42.90;;;;;;5020365;28;19992;-78
2021/11/10 01:17:42;;;;;;;;;;;25.70;42.90;;;;;;5020194;28;19985;-78
2021/11/10 01:20:11;;;;;;;;;;;25.70;42.90;;;;;;5020165;28;19909;-79
2021/11/10 01:22:36;;;;;;;;;;;25.70;42.90;;;;;;5037523;28;19909;-77
2021/11/10 01:25:05;;;;;;;;;;;25.70;42.90;;;;;;5003955;28;20003;-78
2021/11/10 01:27:31;;;;;;;;;;;25.70;42.90;;;;;;5019288;28;19909;-78
2021/11/10 01:29:59;;;;;;;;;;;25.70;42.90;;;;;;5019964;28;20270;-77
2021/11/10 01:32:24;;;;;;;;;;;25.70;42.90;;;;;;5003591;28;19909;-80
2021/11/10 01:34:50;;;;;;;;;;;25.70;42.90;;;;;;5020029;28;19932;-77
2021/11/10 01:37:15;;;;;;;;;;;25.70;42.90;;;;;;5019910;28;19943;-77
2021/11/10 01:39:41;;;;;;;;;;;25.70;42.90;;;;;;5037090;28;19909;-77
2021/11/10 01:42:07;;;;;;;;;;;25.70;42.90;;;;;;5037115;28;20370;-77
2021/11/10 01:44:33;;;;;;;;;;;25.70;42.90;;;;;;5019637;28;20330;-77
2021/11/10 01:46:59;;;;;;;;;;;25.70;42.90;;;;;;5019586;28;20330;-76
2021/11/10 01:49:25;;;;;;;;;;;25.70;42.80;;;;;;5019701;28;19966;-81
2021/11/10 01:51:51;;;;;;;;;;;25.70;42.90;;;;;;5036947;28;20286;-77
2021/11/10 01:54:17;;;;;;;;;;;25.70;42.80;;;;;;5003473;28;19955;-76
2021/11/10 01:56:43;;;;;;;;;;;25.70;42.80;;;;;;5003316;28;19948;-76
2021/11/10 01:59:11;;;;;;;;;;;25.60;42.80;;;;;;5019595;28;20012;-75
2021/11/10 02:01:45;;;;;;;;;;;25.70;42.90;;;;;;5019839;28;19919;-77
2021/11/10 02:04:11;;;;;;;;;;;25.70;42.90;;;;;;5019296;28;19909;-77
2021/11/10 02:06:37;;;;;;;;;;;25.70;42.90;;;;;;5019361;28;20343;-78
2021/11/10 02:09:03;;;;;;;;;;;25.70;42.90;;;;;;5019079;28;19909;-77
2021/11/10 02:11:29;;;;;;;;;;;25.60;42.80;;;;;;5019419;28;19909;-76
2021/11/10 02:13:55;;;;;;;;;;;25.60;42.80;;;;;;5019515;28;20322;-76
2021/11/10 02:16:22;;;;;;;;;;;25.70;42.90;;;;;;5036385;28;19909;-77
2021/11/10 02:18:51;;;;;;;;;;;25.60;42.80;;;;;;5019362;28;20008;-76
2021/11/10 02:21:18;;;;;;;;;;;25.60;42.80;;;;;;5019037;28;19909;-77
2021/11/10 02:23:46;;;;;;;;;;;25.60;42.80;;;;;;5018806;28;19909;-75
2021/11/10 02:26:13;;;;;;;;;;;25.70;42.80;;;;;;5018847;28;20010;-80
2021/11/10 02:28:41;;;;;;;;;;;25.60;42.80;;;;;;5002548;28;19909;-78
2021/11/10 02:31:06;;;;;;;;;;;25.70;42.80;;;;;;5019121;28;19909;-76
2021/11/10 02:33:34;;;;;;;;;;;25.70;42.80;;;;;;5002686;28;19967;-77
2021/11/10 02:36:05;;;;;;;;;;;25.60;42.80;;;;;;5002759;28;19920;-77
2021/11/10 02:38:31;;;;;;;;;;;25.70;42.80;;;;;;5035423;28;19921;-77
2021/11/10 02:40:57;;;;;;;;;;;25.60;42.70;;;;;;5036429;28;19920;-75
2021/11/10 02:43:27;;;;;;;;;;;25.60;42.70;;;;;;5002311;28;20301;-76
2021/11/10 02:45:53;;;;;;;;;;;25.60;42.70;;;;;;5003302;28;19999;-77
2021/11/10 02:48:21;;;;;;;;;;;25.70;42.80;;;;;;5002911;28;19987;-77
2021/11/10 02:50:49;;;;;;;;;;;25.70;42.80;;;;;;5018778;28;19913;-78
2021/11/10 02:53:15;;;;;;;;;;;25.60;42.70;;;;;;5035985;28;19956;-77
2021/11/10 02:55:43;;;;;;;;;;;25.70;42.80;;;;;;5035658;28;19910;-77
2021/11/10 02:58:11;;;;;;;;;;;25.60;42.70;;;;;;5002043;28;19924;-77
2021/11/10 03:00:36;;;;;;;;;;;25.60;42.70;;;;;;5035856;28;19909;-77
2021/11/10 03:03:02;;;;;;;;;;;25.60;42.70;;;;;;5002178;28;19920;-77
2021/11/10 03:05:28;;;;;;;;;;;25.60;42.70;;;;;;5019603;28;19909;-77
2021/11/10 03:07:53;;;;;;;;;;;25.60;43.30;;;;;;5021209;28;20341;-76
2021/11/10 03:10:21;;;;;;;;;;;25.60;42.70;;;;;;5020979;28;19920;-76
2021/11/10 03:12:47;;;;;;;;;;;25.60;42.70;;;;;;5020949;28;19927;-77
2021/11/10 03:15:13;;;;;;;;;;;25.60;43.30;;;;;;5019858;28;19987;-76
2021/11/10 03:17:39;;;;;;;;;;;25.60;42.70;;;;;;5037979;28;19920;-77
2021/11/10 03:20:07;;;;;;;;;;;25.60;42.70;;;;;;5037752;28;19952;-76
2021/11/10 03:22:35;;;;;;;;;;;25.60;42.70;;;;;;5004160;28;19922;-78
2021/11/10 03:25:03;;;;;;;;;;;25.60;42.70;;;;;;5003086;28;19919;-77
2021/11/10 03:27:29;;;;;;;;;;;25.60;42.70;;;;;;5036782;28;19921;-76
2021/11/10 03:29:57;;;;;;;;;;;25.60;42.70;;;;;;5019835;28;19910;-79
2021/11/10 03:32:25;;;;;;;;;;;25.60;42.70;;;;;;5001987;28;19917;-78
2021/11/10 03:34:53;;;;;;;;;;;25.60;42.70;;;;;;5001959;28;19909;-78
2021/11/10 03:37:18;;;;;;;;;;;25.60;42.70;;;;;;5034970;28;19917;-78
2021/11/10 03:39:44;;;;;;;;;;;25.60;42.70;;;;;;5035166;28;20083;-76
2021/11/10 03:42:12;;;;;;;;;;;25.60;42.70;;;;;;5017660;28;19919;-76
2021/11/10 03:44:40;;;;;;;;;;;25.60;42.70;;;;;;5034941;28;20003;-78
2021/11/10 03:47:05;;;;;;;;;;;25.60;42.70;;;;;;5034977;28;19909;-77
2021/11/10 03:49:33;;;;;;;;;;;25.60;42.70;;;;;;5017242;28;19913;-78
2021/11/10 03:51:59;;;;;;;;;;;25.60;42.70;;;;;;5017435;28;19909;-76
2021/11/10 03:54:24;;;;;;;;;;;25.60;42.70;;;;;;5034827;28;19971;-79
2021/11/10 03:56:52;;;;;;;;;;;25.60;42.70;;;;;;5001897;28;19909;-75
2021/11/10 03:59:18;;;;;;;;;;;25.60;42.70;;;;;;5001402;28;19913;-77
2021/11/10 04:01:46;;;;;;;;;;;25.60;42.70;;;;;;5017462;28;19924;-77
2021/11/10 04:04:11;;;;;;;;;;;25.60;42.70;;;;;;5034645;28;19910;-77
2021/11/10 04:06:39;;;;;;;;;;;25.60;42.70;;;;;;5034691;28;19917;-77
2021/11/10 04:09:07;;;;;;;;;;;25.60;42.60;;;;;;5034688;28;19913;-75
2021/11/10 04:11:37;;;;;;;;;;;25.60;42.60;;;;;;5034785;28;20258;-76
2021/11/10 04:14:05;;;;;;;;;;;25.60;42.60;;;;;;5017468;28;20006;-77
2021/11/10 04:16:36;;;;;;;;;;;25.60;42.60;;;;;;5017405;28;19909;-78
2021/11/10 04:19:01;;;;;;;;;;;25.60;42.60;;;;;;5017154;28;19920;-77
2021/11/10 04:21:27;;;;;;;;;;;25.60;42.60;;;;;;5000982;28;19909;-79
2021/11/10 04:23:55;;;;;;;;;;;25.60;42.60;;;;;;5017261;28;20012;-76
2021/11/10 04:26:24;;;;;;;;;;;25.60;42.60;;;;;;5017429;28;19909;-78
2021/11/10 04:28:49;;;;;;;;;;;25.60;42.60;;;;;;5017859;28;19920;-79
2021/11/10 04:31:15;;;;;;;;;;;25.60;42.60;;;;;;5017290;28;19909;-75
2021/11/10 04:33:42;;;;;;;;;;;25.60;42.60;;;;;;5034519;28;19909;-78
2021/11/10 04:36:07;;;;;;;;;;;25.60;42.60;;;;;;5017412;28;20359;-77
2021/11/10 04:38:33;;;;;;;;;;;25.60;42.60;;;;;;5017008;28;19955;-75
2021/11/10 04:40:58;;;;;;;;;;;25.60;42.60;;;;;;5034417;28;19909;-77
2021/11/10 04:43:26;;;;;;;;;;;25.60;42.60;;;;;;5017062;28;19986;-78
2021/11/10 04:46:02;;;;;;;;;;;25.60;42.60;;;;;;5017195;28;20396;-78
2021/11/10 04:48:28;;;;;;;;;;;25.60;42.50;;;;;;5034809;28;20396;-77
2021/11/10 04:50:56;;;;;;;;;;;25.60;42.50;;;;;;5016962;28;19913;-78
2021/11/10 04:53:23;;;;;;;;;;;25.60;42.50;;;;;;5034535;28;19909;-77
2021/11/10 04:55:49;;;;;;;;;;;25.60;42.50;;;;;;5017172;28;19913;-76
2021/11/10 04:58:14;;;;;;;;;;;25.60;42.50;;;;;;5034335;28;20025;-78
2021/11/10 05:00:40;;;;;;;;;;;25.60;42.50;;;;;;5017151;28;19909;-77
2021/11/10 05:03:07;;;;;;;;;;;25.60;42.50;;;;;;5037408;28;19996;-76
2021/11/10 05:05:32;;;;;;;;;;;25.60;42.50;;;;;;5004329;28;19909;-77
2021/11/10 05:08:00;;;;;;;;;;;25.60;42.50;;;;;;5020345;28;19909;-78
2021/11/10 05:10:26;;;;;;;;;;;25.60;42.50;;;;;;5020515;28;19909;-78
2021/11/10 05:12:51;;;;;;;;;;;25.60;42.50;;;;;;5020356;28;19909;-80
2021/11/10 05:15:17;;;;;;;;;;;25.60;42.50;;;;;;5037587;28;19909;-76
2021/11/10 05:17:42;;;;;;;;;;;25.60;42.50;;;;;;5020245;28;20262;-77
2021/11/10 05:20:10;;;;;;;;;;;25.60;42.50;;;;;;5020282;28;19908;-77
2021/11/10 05:22:36;;;;;;;;;;;25.60;42.50;;;;;;5037821;28;20258;-76
2021/11/10 05:25:01;;;;;;;;;;;25.60;42.50;;;;;;5004268;28;19920;-76
2021/11/10 05:27:27;;;;;;;;;;;25.60;42.50;;;;;;5037882;28;19928;-77
2021/11/10 05:29:55;;;;;;;;;;;25.60;42.50;;;;;;5037994;28;19909;-77
2021/11/10 05:32:20;;;;;;;;;;;25.60;42.50;;;;;;5037576;28;20343;-76
2021/11/10 05:34:46;;;;;;;;;;;25.60;42.50;;;;;;5020684;28;19920;-79
2021/11/10 05:37:11;;;;;;;;;;;25.60;42.50;;;;;;5020137;28;20028;-77
2021/11/10 05:39:42;;;;;;;;;;;25.60;42.40;;;;;;5003927;28;19976;-77
2021/11/10 05:42:08;;;;;;;;;;;25.60;42.50;;;;;;5020135;28;19913;-77
2021/11/10 05:44:33;;;;;;;;;;;25.60;42.40;;;;;;5019647;28;20331;-78
2021/11/10 05:47:04;;;;;;;;;;;25.60;42.40;;;;;;5019631;28;19971;-78
2021/11/10 05:49:29;;;;;;;;;;;25.60;42.40;;;;;;5019815;28;19909;-79
2021/11/10 05:51:55;;;;;;;;;;;25.60;42.40;;;;;;5037457;28;19971;-79
2021/11/10 05:54:21;;;;;;;;;;;25.60;42.40;;;;;;5020189;28;20235;-77
2021/11/10 05:56:47;;;;;;;;;;;25.60;42.40;;;;;;5003137;28;19914;-77
2021/11/10 05:59:12;;;;;;;;;;;25.60;42.40;;;;;;5003293;28;19948;-76
2021/11/10 06:01:38;;;;;;;;;;;25.60;42.40;;;;;;5019332;28;19909;-77
2021/11/10 06:04:04;;;;;;;;;;;25.60;42.50;;;;;;5019591;28;19924;-78
2021/11/10 06:06:32;;;;;;;;;;;25.60;42.50;;;;;;5019323;28;20338;-78
2021/11/10 06:08:57;;;;;;;;;;;25.60;42.50;;;;;;5019160;28;19909;-78
2021/11/10 06:11:23;;;;;;;;;;;25.60;42.50;;;;;;5003407;28;19917;-75
2021/11/10 06:13:48;;;;;;;;;;;25.60;42.50;;;;;;5019193;28;19909;-79
2021/11/10 06:16:14;;;;;;;;;;;25.60;42.50;;;;;;5019303;28;19913;-77
2021/11/10 06:18:42;;;;;;;;;;;25.60;42.50;;;;;;5036426;28;20016;-77
2021/11/10 06:21:09;;;;;;;;;;;25.60;42.50;;;;;;5036668;28;19919;-77
2021/11/10 06:23:37;;;;;;;;;;;25.60;42.50;;;;;;5019342;28;19909;-77
2021/11/10 06:26:03;;;;;;;;;;;25.60;42.40;;;;;;5036290;28;19949;-77
2021/11/10 06:28:28;;;;;;;;;;;25.60;42.40;;;;;;5019016;28;19935;-77
2021/11/10 06:30:54;;;;;;;;;;;25.60;42.40;;;;;;5002972;28;19909;-78
2021/11/10 06:33:24;;;;;;;;;;;25.60;42.40;;;;;;5018617;28;19962;-78
2021/11/10 06:35:50;;;;;;;;;;;25.60;42.40;;;;;;5019069;28;19909;-77
2021/11/10 06:38:18;;;;;;;;;;;25.60;42.40;;;;;;5018193;28;19928;-77
2021/11/10 06:40:46;;;;;;;;;;;25.70;42.40;;;;;;5003025;28;19913;-80
2021/11/10 06:43:12;;;;;;;;;;;25.70;42.50;;;;;;5036629;28;19909;-80
2021/11/10 06:45:37;;;;;;;;;;;25.70;42.60;;;;;;5021067;28;20046;-79
2021/11/10 06:48:03;;;;;;;;;;;25.70;42.70;;;;;;5005358;28;20058;-80
2021/11/10 06:50:28;;;;;;;;;;;25.60;42.70;;;;;;5021599;28;19982;-77
2021/11/10 06:52:56;;;;;;;;;;;25.60;42.70;;;;;;5002882;28;19917;-78
2021/11/10 06:55:24;;;;;;;;;;;25.50;36.80;;;;;;5036397;28;19970;-73
2021/11/10 06:57:50;;;;;;;;;;;23.10;36.40;;;;;;5035385;28;20011;-74
2021/11/10 07:00:18;;;;;;;;;;;21.40;36.90;;;;;;5035423;28;19955;-74
2021/11/10 07:02:46;;;;;;;;;;;20.20;39.30;;;;;;5018214;28;20008;-77
2021/11/10 07:05:12;;;;;;;;;;;20.00;38.70;;;;;;5002534;28;19938;-79
2021/11/10 07:07:37;;;;;;;;;;;19.70;41.90;;;;;;5019575;28;19919;-77
2021/11/10 07:10:08;;;;;;;;;;;20.50;43.00;;;;;;5004548;28;19909;-77
2021/11/10 07:12:33;;;;;;;;;;;21.50;43.50;;;;;;5005585;28;20021;-76
2021/11/10 07:14:59;;;;;;;;;;;22.20;44.50;;;;;;5021441;28;20350;-78
2021/11/10 07:17:24;;;;;;;;;;;22.80;45.20;;;;;;5004801;28;20361;-79
2021/11/10 07:19:53;;;;;;;;;;;23.20;45.80;;;;;;5039483;28;20261;-78
2021/11/10 07:22:19;;;;;;;;;;;23.60;46.00;;;;;;5006888;28;19913;-79
2021/11/10 07:24:44;;;;;;;;;;;23.80;45.90;;;;;;5023437;28;20000;-76
2021/11/10 07:27:13;;;;;;;;;;;24.00;45.90;;;;;;5023587;28;19915;-80
2021/11/10 07:29:38;;;;;;;;;;;24.20;45.90;;;;;;5021356;28;20277;-79
2021/11/10 07:32:07;;;;;;;;;;;24.40;45.90;;;;;;5006350;28;19970;-77
2021/11/10 07:34:33;;;;;;;;;;;24.50;45.60;;;;;;5039947;28;19909;-77
2021/11/10 07:36:59;;;;;;;;;;;24.60;45.50;;;;;;5007697;28;19996;-78
2021/11/10 07:39:25;;;;;;;;;;;24.70;45.30;;;;;;5008599;28;19917;-79
2021/11/10 07:41:53;;;;;;;;;;;24.80;45.20;;;;;;5009937;28;20303;-77
2021/11/10 07:44:19;;;;;;;;;;;24.80;45.10;;;;;;5026060;28;19913;-79
2021/11/10 07:46:51;;;;;;;;;;;25.00;45.10;;;;;;5006910;28;20374;-79
2021/11/10 07:49:22;;;;;;;;;;;25.00;45.00;;;;;;5007614;28;19909;-78
2021/11/10 07:51:48;;;;;;;;;;;25.10;45.00;;;;;;5006406;28;19909;-78
2021/11/10 07:54:16;;;;;;;;;;;25.10;45.00;;;;;;5022267;28;20373;-80
2021/11/10 07:56:42;;;;;;;;;;;25.20;44.90;;;;;;5005065;28;20373;-77
2021/11/10 07:59:07;;;;;;;;;;;25.20;44.80;;;;;;5005116;28;19913;-77
2021/11/10 08:01:33;;;;;;;;;;;25.30;44.80;;;;;;5003169;28;19919;-76
2021/11/10 08:04:07;;;;;;;;;;;25.30;44.80;;;;;;5002505;28;19909;-78
2021/11/10 08:06:32;;;;;;;;;;;25.40;45.00;;;;;;5037357;28;20016;-79
2021/11/10 08:08:58;;;;;;;;;;;25.40;45.00;;;;;;5020454;28;19920;-80
2021/11/10 08:11:24;;;;;;;;;;;25.40;44.80;;;;;;5021955;28;20219;-77
2021/11/10 08:13:49;;;;;;;;;;;25.50;44.70;;;;;;5005274;28;19909;-82
2021/11/10 08:16:15;;;;;;;;;;;25.50;44.60;;;;;;5019580;28;20337;-78
2021/11/10 08:18:40;;;;;;;;;;;25.50;44.40;;;;;;5018165;28;19920;-77
2021/11/10 08:21:06;;;;;;;;;;;25.60;44.40;;;;;;5018180;28;19909;-77
2021/11/10 08:23:34;;;;;;;;;;;25.60;44.30;;;;;;5001787;28;20322;-79
2021/11/10 08:26:00;;;;;;;;;;;25.60;44.20;;;;;;5034888;28;19909;-77
2021/11/10 08:28:26;;;;;;;;;;;25.60;44.20;;;;;;5018159;28;19958;-78
2021/11/10 08:30:52;;;;;;;;;;;25.60;44.20;;;;;;5036706;28;19917;-76
2021/11/10 08:33:20;;;;;;;;;;;25.60;44.00;;;;;;5054396;28;20393;-79
2021/11/10 08:35:46;;;;;;;;;;;25.70;44.10;;;;;;5054149;28;19913;-79
2021/11/10 08:38:11;;;;;;;;;;;25.70;44.00;;;;;;5040061;28;19920;-78
2021/11/10 08:40:39;;;;;;;;;;;25.70;44.00;;;;;;5024390;28;19908;-80
2021/11/10 08:43:10;;;;;;;;;;;25.70;43.90;;;;;;5058290;28;19920;-82
2021/11/10 08:45:36;;;;;;;;;;;25.70;44.00;;;;;;5025367;28;19995;-81
2021/11/10 08:48:07;;;;;;;;;;;25.70;44.00;;;;;;5058494;28;19948;-78
2021/11/10 08:50:36;;;;;;;;;;;25.70;43.90;;;;;;5040878;28;19909;-79
2021/11/10 08:53:02;;;;;;;;;;;25.70;43.90;;;;;;5041169;28;19966;-79
2021/11/10 08:55:30;;;;;;;;;;;25.70;43.90;;;;;;5024431;28;19919;-80
2021/11/10 08:57:58;;;;;;;;;;;25.70;44.40;;;;;;5040108;28;19928;-77
2021/11/10 09:00:25;;;;;;;;;;;25.70;43.80;;;;;;5039390;28;19945;-79
2021/11/10 09:02:50;;;;;;;;;;;25.80;43.80;;;;;;5040558;28;19908;-78
2021/11/10 09:05:16;;;;;;;;;;;25.70;43.80;;;;;;5023564;28;19955;-80
2021/11/10 09:07:41;;;;;;;;;;;25.70;43.70;;;;;;5040154;28;20003;-78
2021/11/10 09:10:12;;;;;;;;;;;25.80;43.80;;;;;;5040264;28;20008;-79
2021/11/10 09:12:38;;;;;;;;;;;25.80;43.80;;;;;;5024061;28;19935;-79
2021/11/10 09:15:04;;;;;;;;;;;25.80;43.80;;;;;;5040469;28;19913;-78
2021/11/10 09:17:35;;;;;;;;;;;25.80;43.70;;;;;;5039788;28;19992;-81
2021/11/10 09:20:04;;;;;;;;;;;25.80;43.80;;;;;;5039909;28;19909;-80
2021/11/10 09:22:32;;;;;;;;;;;25.80;43.90;;;;;;5023852;28;19916;-79
2021/11/10 09:24:58;;;;;;;;;;;25.80;43.80;;;;;;5023750;28;19919;-79
2021/11/10 09:27:26;;;;;;;;;;;25.80;43.80;;;;;;5024453;28;19916;-81
2021/11/10 09:29:54;;;;;;;;;;;25.80;43.90;;;;;;5024093;28;19919;-80
2021/11/10 09:32:19;;;;;;;;;;;25.80;43.80;;;;;;5024335;28;19923;-82
2021/11/10 09:34:45;;;;;;;;;;;25.80;43.90;;;;;;5024478;28;20000;-80
2021/11/10 09:37:11;;;;;;;;;;;25.90;43.90;;;;;;5024051;28;20258;-77
2021/11/10 09:39:39;;;;;;;;;;;25.90;43.80;;;;;;5023409;28;19970;-83
2021/11/10 09:42:07;;;;;;;;;;;25.90;43.90;;;;;;5039312;28;19924;-81
2021/11/10 09:44:33;;;;;;;;;;;25.90;43.90;;;;;;5023681;28;19909;-80
2021/11/10 09:47:01;;;;;;;;;;;25.80;43.80;;;;;;5019644;28;20397;-82
2021/11/10 09:49:29;;;;;;;;;;;25.90;44.00;;;;;;5004346;28;20242;-81
2021/11/10 09:51:54;;;;;;;;;;;25.80;43.90;;;;;;5003756;28;19913;-83
2021/11/10 09:54:20;;;;;;;;;;;25.90;44.10;;;;;;5003868;28;19966;-82
2021/11/10 09:56:46;;;;;;;;;;;25.80;44.00;;;;;;5020026;28;19909;-79
2021/11/10 09:59:11;;;;;;;;;;;25.80;44.10;;;;;;5019557;28;19913;-78
2021/11/10 10:01:42;;;;;;;;;;;25.80;44.10;;;;;;5003524;28;19921;-79
2021/11/10 10:04:08;;;;;;;;;;;25.90;44.20;;;;;;5003981;28;19920;-79
2021/11/10 10:06:34;;;;;;;;;;;25.80;44.00;;;;;;5003461;28;19917;-79
2021/11/10 10:09:00;;;;;;;;;;;25.80;43.80;;;;;;5019638;28;20392;-78
2021/11/10 10:11:29;;;;;;;;;;;25.80;43.90;;;;;;5003233;28;19963;-79
2021/11/10 10:13:55;;;;;;;;;;;25.90;44.10;;;;;;5003349;28;19963;-80
2021/11/10 10:16:21;;;;;;;;;;;25.90;43.90;;;;;;5019538;28;19997;-77
2021/11/10 10:18:47;;;;;;;;;;;25.90;44.10;;;;;;5002722;28;19913;-78
2021/11/10 10:21:12;;;;;;;;;;;25.80;43.80;;;;;;5036527;28;19932;-79
2021/11/10 10:23:39;;;;;;;;;;;25.90;44.00;;;;;;5036464;28;20364;-78
2021/11/10 10:26:11;;;;;;;;;;;25.90;44.10;;;;;;5003283;28;20353;-82
2021/11/10 10:28:40;;;;;;;;;;;25.90;43.90;;;;;;5003870;28;19925;-80
2021/11/10 10:31:09;;;;;;;;;;;25.90;43.90;;;;;;5003315;28;19931;-77
2021/11/10 10:33:38;;;;;;;;;;;25.90;43.80;;;;;;5019677;28;19909;-82
2021/11/10 10:36:10;;;;;;;;;;;25.80;43.80;;;;;;5019785;28;20385;-77
2021/11/10 10:38:37;;;;;;;;;;;25.90;44.00;;;;;;5019509;28;20007;-78
2021/11/10 10:41:05;;;;;;;;;;;25.90;43.70;;;;;;5003343;28;19913;-78
2021/11/10 10:43:30;;;;;;;;;;;25.90;43.90;;;;;;5019260;28;20336;-79
2021/11/10 10:45:59;;;;;;;;;;;25.90;43.90;;;;;;5019142;28;19910;-80
2021/11/10 10:48:29;;;;;;;;;;;25.90;43.90;;;;;;5019121;28;20020;-77
2021/11/10 10:50:55;;;;;;;;;;;25.80;43.70;;;;;;5002935;28;19913;-78
2021/11/10 10:53:31;;;;;;;;;;;25.90;43.80;;;;;;5002741;28;19909;-82
2021/11/10 10:55:59;;;;;;;;;;;25.80;43.70;;;;;;5018772;28;20241;-81
2021/11/10 10:58:35;;;;;;;;;;;25.90;43.80;;;;;;5002217;28;19916;-78
2021/11/10 11:01:15;;;;;;;;;;;25.90;43.80;;;;;;5002116;28;19910;-82
2021/11/10 11:03:42;;;;;;;;;;;25.90;43.80;;;;;;5002564;28;19909;-78
2021/11/10 11:06:10;;;;;;;;;;;25.90;43.80;;;;;;5002091;28;19909;-78
2021/11/10 11:08:37;;;;;;;;;;;25.90;43.80;;;;;;5001882;28;19913;-78
2021/11/10 11:11:31;;;;;;;;;;;25.90;43.90;;;;;;5002508;28;19967;-79
2021/11/10 11:13:59;;;;;;;;;;;25.90;43.80;;;;;;5020210;28;19991;-79
2021/11/10 11:16:28;;;;;;;;;;;25.90;43.80;;;;;;5003130;28;19913;-79
2021/11/10 11:19:12;;;;;;;;;;;25.90;43.70;;;;;;5002338;28;20016;-79
2021/11/10 11:21:57;;;;;;;;;;;25.80;43.50;;;;;;5018727;28;19910;-80
2021/11/10 11:24:41;;;;;;;;;;;25.80;43.60;;;;;;5002496;28;19909;-82
2021/11/10 11:27:10;;;;;;;;;;;25.80;43.60;;;;;;5001850;28;19915;-80
2021/11/10 11:29:36;;;;;;;;;;;25.80;43.50;;;;;;5002018;28;19932;-81
2021/11/10 11:32:04;;;;;;;;;;;25.80;43.70;;;;;;5001900;28;20334;-81
2021/11/10 11:34:46;;;;;;;;;;;25.80;43.70;;;;;;5002037;28;20385;-79
2021/11/10 11:37:14;;;;;;;;;;;25.80;43.40;;;;;;5002090;28;20390;-80
2021/11/10 11:39:40;;;;;;;;;;;25.80;43.60;;;;;;5002249;28;19917;-81
2021/11/10 11:42:08;;;;;;;;;;;25.90;43.70;;;;;;5001901;28;20395;-81
2021/11/10 11:44:34;;;;;;;;;;;25.90;43.60;;;;;;5018764;28;20241;-86
2021/11/10 11:47:00;;;;;;;;;;;25.90;43.70;;;;;;5002359;28;19915;-79
2021/11/10 11:49:25;;;;;;;;;;;25.90;43.70;;;;;;5002205;28;19909;-79
2021/11/10 11:51:51;;;;;;;;;;;25.90;43.90;;;;;;5002268;28;20191;-81
2021/11/10 11:54:17;;;;;;;;;;;25.90;44.00;;;;;;5002131;28;20020;-82
2021/11/10 11:56:42;;;;;;;;;;;25.90;44.00;;;;;;5002104;28;19913;-83
2021/11/10 11:59:08;;;;;;;;;;;25.90;43.90;;;;;;5001592;28;19913;-83
2021/11/10 12:01:37;;;;;;;;;;;25.90;44.10;;;;;;5002282;28;20326;-84
2021/11/10 12:04:05;;;;;;;;;;;25.80;44.10;;;;;;5018099;28;20262;-81
2021/11/10 12:06:32;;;;;;;;;;;25.90;44.10;;;;;;5002258;28;19917;-81
2021/11/10 12:09:00;;;;;;;;;;;25.90;43.90;;;;;;5002104;28;19920;-82
2021/11/10 12:11:33;;;;;;;;;;;25.80;43.90;;;;;;5004840;28;20365;-85
2021/11/10 12:13:58;;;;;;;;;;;25.80;44.10;;;;;;5006398;28;20003;-84
2021/11/10 12:16:24;;;;;;;;;;;25.90;44.10;;;;;;5022736;28;19959;-82
2021/11/10 12:18:51;;;;;;;;;;;25.80;44.00;;;;;;5022943;28;19972;-84
2021/11/10 12:21:24;;;;;;;;;;;25.90;44.00;;;;;;5007851;28;19909;-84
2021/11/10 12:23:55;;;;;;;;;;;25.80;44.00;;;;;;5008509;28;19909;-82
2021/11/10 12:26:23;;;;;;;;;;;25.80;43.90;;;;;;5024492;28;19910;-80
2021/11/10 12:28:48;;;;;;;;;;;25.80;44.00;;;;;;5011160;28;19920;-81
2021/11/10 12:31:29;;;;;;;;;;;25.90;44.00;;;;;;5028015;28;19913;-81
2021/11/10 12:33:57;;;;;;;;;;;25.90;43.90;;;;;;5025561;28;19924;-82
2021/11/10 12:36:42;;;;;;;;;;;25.90;44.00;;;;;;5021465;28;19909;-82
2021/11/10 12:39:07;;;;;;;;;;;25.80;44.00;;;;;;5021749;28;19917;-80
2021/11/10 12:41:45;;;;;;;;;;;25.80;43.90;;;;;;5005450;28;19920;-84
2021/11/10 12:44:26;;;;;;;;;;;25.80;44.00;;;;;;5006147;28;19916;-84
2021/11/10 12:46:52;;;;;;;;;;;25.90;44.00;;;;;;5006242;28;19909;-82
2021/11/10 12:49:17;;;;;;;;;;;25.80;43.80;;;;;;5005929;28;19916;-83
2021/11/10 12:51:43;;;;;;;;;;;25.80;43.80;;;;;;5005892;28;19980;-83
2021/11/10 12:54:25;;;;;;;;;;;25.80;43.90;;;;;;5005819;28;19909;-83
2021/11/10 12:56:52;;;;;;;;;;;25.80;43.80;;;;;;5005785;28;19910;-83
2021/11/10 12:59:23;;;;;;;;;;;25.80;43.90;;;;;;5005080;28;19913;-85
2021/11/10 13:01:51;;;;;;;;;;;25.80;43.80;;;;;;5005519;28;19916;-84
2021/11/10 13:04:24;;;;;;;;;;;25.80;43.80;;;;;;5005440;28;19909;-83
2021/11/10 13:06:55;;;;;;;;;;;25.80;44.30;;;;;;5005602;28;19913;-86
2021/11/10 13:09:34;;;;;;;;;;;25.80;43.70;;;;;;5006107;28;19916;-85
2021/11/10 13:12:02;;;;;;;;;;;25.80;43.50;;;;;;5006294;28;20004;-83
2021/11/10 13:14:30;;;;;;;;;;;25.80;43.70;;;;;;5005807;28;19910;-86
2021/11/10 13:16:59;;;;;;;;;;;25.80;43.70;;;;;;5005779;28;20293;-82
2021/11/10 13:19:43;;;;;;;;;;;25.80;43.70;;;;;;5004993;28;19975;-84
2021/11/10 13:22:19;;;;;;;;;;;25.80;43.60;;;;;;5020612;28;20346;-83
2021/11/10 13:24:48;;;;;;;;;;;25.80;43.60;;;;;;5021169;28;20250;-81
2021/11/10 13:27:14;;;;;;;;;;;25.80;43.60;;;;;;5005372;28;19909;-82
2021/11/10 13:29:42;;;;;;;;;;;25.80;43.60;;;;;;5005099;28;19909;-82
2021/11/10 13:32:12;;;;;;;;;;;25.80;43.60;;;;;;5005178;28;20404;-82
2021/11/10 13:34:42;;;;;;;;;;;25.80;43.60;;;;;;5005470;28;19916;-85
2021/11/10 13:37:08;;;;;;;;;;;25.80;43.60;;;;;;5004644;28;19947;-83
2021/11/10 13:39:34;;;;;;;;;;;25.80;43.60;;;;;;5004272;28;20358;-81
2021/11/10 13:42:00;;;;;;;;;;;25.80;43.60;;;;;;5004612;28;20338;-85
2021/11/10 13:44:27;;;;;;;;;;;25.80;43.60;;;;;;5004372;28;20392;-84
2021/11/10 13:46:59;;;;;;;;;;;25.80;43.70;;;;;;5004209;28;19909;-82
2021/11/10 13:49:26;;;;;;;;;;;25.80;43.70;;;;;;5019905;28;20004;-80
2021/11/10 13:52:06;;;;;;;;;;;25.80;44.10;;;;;;5003983;28;19909;-85
2021/11/10 13:54:36;;;;;;;;;;;25.80;43.40;;;;;;5020723;28;19913;-83
2021/11/10 13:57:05;;;;;;;;;;;25.80;43.40;;;;;;5020665;28;19909;-80
2021/11/10 13:59:38;;;;;;;;;;;25.80;43.60;;;;;;5004064;28;19913;-83
2021/11/10 14:02:08;;;;;;;;;;;25.80;43.60;;;;;;5004144;28;20314;-82
2021/11/10 14:04:36;;;;;;;;;;;25.80;43.40;;;;;;5003980;28;19913;-82
2021/11/10 14:07:15;;;;;;;;;;;25.80;43.50;;;;;;5004022;28;19913;-82
2021/11/10 14:09:43;;;;;;;;;;;25.80;43.50;;;;;;5020250;28;20250;-80
2021/11/10 14:12:24;;;;;;;;;;;25.80;43.40;;;;;;5020349;28;19913;-82
2021/11/10 14:14:51;;;;;;;;;;;25.80;43.60;;;;;;5037313;28;20362;-84
2021/11/10 14:17:19;;;;;;;;;;;25.80;43.50;;;;;;5004197;28;19909;-81
2021/11/10 14:19:50;;;;;;;;;;;25.80;43.60;;;;;;5003320;28;19917;-79